Terminal Aerodrome Forecast
Issued by NWS

Home | Current Version | Previous Version | Text Only | Print | Product List | Glossary Off
Versions: 1 2 3 4 5 6 7 8 9 10 11 12 13 14

910
FTUS43 KGRB 290520
TAFMTW
TAF
KMTW 290520Z 2906/3006 25006KT P6SM SCT070 BKN100
     FM291500 26014G24KT P6SM VCSH BKN045
     FM300200 26010KT P6SM VCSH BKN040 BKN070=

USA.gov is the U.S. government's official web portal to all federal, state and local government web resources and services.